Time;durP1;ratioP1;P1;durP2;ratioP2;P2;SDS_P1;SDS_P2;PMS_P1;PMS_P2;Temp;Humidity;BMP_temperature;BMP_pressure;BME280_temperature;BME280_humidity;BME280_pressure;Samples;Min_cycle;Max_cycle;Signal;HPM_P1;HPM_P2
2021/07/04 00:01:37;;;;;;;11.05;8.65;;;18.20;99.90;;;;;;3618983;39;20522;-39
2021/07/04 00:04:05;;;;;;;8.80;8.00;;;17.90;99.90;;;;;;3618819;39;20236;-40
2021/07/04 00:06:32;;;;;;;9.57;8.02;;;17.80;99.90;;;;;;3618883;39;20232;-39
2021/07/04 00:08:59;;;;;;;8.45;7.72;;;17.30;99.90;;;;;;3611384;39;20236;-39
2021/07/04 00:11:28;;;;;;;8.57;7.88;;;17.00;99.90;;;;;;3608567;39;20527;-39
2021/07/04 00:13:55;;;;;;;8.50;7.80;;;16.90;99.90;;;;;;3608787;39;20245;-39
2021/07/04 00:16:22;;;;;;;10.80;9.65;;;17.10;99.90;;;;;;3608654;39;20243;-38
2021/07/04 00:18:49;;;;;;;8.98;8.25;;;16.80;99.90;;;;;;3608279;39;20228;-38
2021/07/04 00:21:16;;;;;;;9.73;8.90;;;16.70;99.90;;;;;;3608536;39;20235;-39
2021/07/04 00:23:43;;;;;;;9.98;9.00;;;16.90;99.90;;;;;;3608447;39;20522;-39
2021/07/04 00:26:21;;;;;;;9.43;8.60;;;16.80;99.90;;;;;;3609046;39;20240;-39
2021/07/04 00:28:50;;;;;;;9.43;8.52;;;16.90;99.90;;;;;;3631382;39;20240;-78
2021/07/04 00:31:17;;;;;;;9.95;8.95;;;16.70;99.90;;;;;;3632851;39;20297;-81
2021/07/04 00:33:44;;;;;;;9.70;8.90;;;17.00;99.90;;;;;;3627561;39;20240;-80
2021/07/04 00:36:12;;;;;;;7.68;7.05;;;17.20;99.90;;;;;;3626906;39;20233;-81
2021/07/04 00:38:39;;;;;;;9.65;8.75;;;17.50;99.90;;;;;;3633172;39;20228;-81
2021/07/04 00:41:07;;;;;;;8.10;7.47;;;17.30;99.90;;;;;;3723480;22;20513;-80
2021/07/04 00:43:34;;;;;;;8.32;7.53;;;17.20;99.90;;;;;;3622795;39;20233;-79
2021/07/04 00:46:05;;;;;;;8.93;8.05;;;17.30;99.90;;;;;;3605983;39;20244;-78
2021/07/04 00:48:33;;;;;;;8.13;7.47;;;17.40;99.90;;;;;;3623058;39;20201;-82
2021/07/04 00:51:00;;;;;;;8.85;8.05;;;17.50;99.90;;;;;;3614170;39;20266;-82
2021/07/04 00:53:28;;;;;;;8.40;7.70;;;17.60;99.90;;;;;;3623131;39;20244;-80
2021/07/04 00:55:55;;;;;;;9.48;8.63;;;17.60;99.90;;;;;;3614474;39;20236;-81
2021/07/04 00:58:22;;;;;;;8.63;7.85;;;17.50;99.90;;;;;;3614238;39;20269;-84
2021/07/04 01:00:53;;;;;;;9.15;8.25;;;17.50;99.90;;;;;;3605712;39;20263;-84
2021/07/04 01:03:21;;;;;;;10.77;9.52;;;17.50;99.90;;;;;;3614296;39;20286;-80
2021/07/04 01:05:54;;;;;;;10.85;9.75;;;17.50;99.90;;;;;;3614304;39;20293;-82
2021/07/04 01:08:22;;;;;;;11.48;10.38;;;17.50;99.90;;;;;;3613851;39;20241;-81
2021/07/04 01:10:50;;;;;;;10.85;9.77;;;17.40;99.90;;;;;;3603964;39;20268;-81
2021/07/04 01:13:19;;;;;;;9.73;8.77;;;17.40;99.90;;;;;;3612778;39;20241;-81
2021/07/04 01:16:10;;;;;;;9.43;8.60;;;17.40;99.90;;;;;;3599745;39;20222;-80
2021/07/04 01:18:39;;;;;;;10.50;9.57;;;17.30;99.90;;;;;;3603674;39;20237;-78
2021/07/04 01:21:11;;;;;;;9.80;8.63;;;16.70;99.90;;;;;;3603988;39;20253;-79
2021/07/04 01:23:43;;;;;;;10.27;9.32;;;16.90;99.90;;;;;;3603993;39;20222;-80
2021/07/04 01:26:12;;;;;;;8.05;7.45;;;17.00;99.90;;;;;;3603635;39;20230;-79
2021/07/04 01:28:39;;;;;;;10.15;9.23;;;17.20;99.90;;;;;;3603924;39;20245;-79
2021/07/04 01:31:09;;;;;;;9.43;8.52;;;17.30;99.90;;;;;;3603897;39;20741;-80
2021/07/04 01:33:39;;;;;;;8.45;7.75;;;17.30;99.90;;;;;;3603949;39;20277;-81
2021/07/04 01:36:15;;;;;;;9.23;8.32;;;17.30;99.90;;;;;;3603855;39;20274;-79
2021/07/04 01:38:48;;;;;;;8.90;8.05;;;17.30;99.90;;;;;;3603792;39;20242;-85
2021/07/04 01:41:16;;;;;;;8.77;7.93;;;17.20;99.90;;;;;;3607058;39;20225;-79
2021/07/04 01:43:43;;;;;;;9.43;8.52;;;17.20;99.90;;;;;;3614033;39;20269;-80
2021/07/04 01:46:11;;;;;;;9.07;8.38;;;17.10;99.90;;;;;;3612295;39;20244;-79
2021/07/04 01:48:40;;;;;;;10.88;9.88;;;17.10;99.90;;;;;;3613900;39;20240;-80
2021/07/04 01:51:13;;;;;;;10.32;9.18;;;16.80;99.90;;;;;;3622610;39;20221;-81
2021/07/04 01:53:40;;;;;;;9.43;8.63;;;16.70;99.90;;;;;;3613949;39;20237;-79
2021/07/04 01:56:17;;;;;;;9.68;8.73;;;16.60;99.90;;;;;;3622532;39;20249;-80
2021/07/04 01:58:55;;;;;;;9.63;8.85;;;16.40;99.90;;;;;;3622693;39;20775;-78
2021/07/04 02:01:46;;;;;;;10.00;9.00;;;16.00;99.90;;;;;;3613701;39;20232;-80
2021/07/04 02:04:14;;;;;;;9.30;8.50;;;16.00;99.90;;;;;;3613869;39;20211;-80
2021/07/04 02:06:44;;;;;;;10.10;8.70;;;16.10;99.90;;;;;;3613513;39;20264;-81
2021/07/04 02:09:13;;;;;;;9.63;8.73;;;16.30;99.90;;;;;;3613717;39;20237;-80
2021/07/04 02:11:46;;;;;;;8.55;7.82;;;16.20;99.90;;;;;;3613755;39;20661;-79
2021/07/04 02:14:13;;;;;;;9.43;8.50;;;16.00;99.90;;;;;;3613330;39;20252;-79
2021/07/04 02:17:05;;;;;;;9.98;8.63;;;15.80;99.90;;;;;;3605258;39;20269;-79
2021/07/04 02:19:50;;;;;;;9.75;8.73;;;16.10;99.90;;;;;;3613933;39;20241;-80
2021/07/04 02:22:32;;;;;;;7.47;6.88;;;16.30;99.90;;;;;;3623893;39;20290;-80
2021/07/04 02:25:22;;;;;;;8.90;8.05;;;16.50;99.90;;;;;;3623531;39;20236;-81
2021/07/04 02:27:52;;;;;;;11.00;8.30;;;16.20;99.90;;;;;;3615243;39;20285;-79
2021/07/04 02:30:29;;;;;;;9.77;8.10;;;15.50;99.90;;;;;;3615184;39;20247;-79
2021/07/04 02:33:02;;;;;;;9.27;8.27;;;15.10;99.90;;;;;;3623463;39;20233;-79
2021/07/04 02:35:30;;;;;;;11.82;9.30;;;14.90;99.90;;;;;;3623934;39;20264;-78
2021/07/04 02:37:58;;;;;;;9.40;8.55;;;14.80;99.90;;;;;;3615166;39;20240;-78
2021/07/04 02:40:30;;;;;;;11.25;8.00;;;14.70;99.90;;;;;;3606432;39;20222;-79
2021/07/04 02:43:05;;;;;;;9.07;7.85;;;14.60;99.90;;;;;;3605008;39;20244;-79
2021/07/04 02:45:33;;;;;;;11.98;9.55;;;14.80;99.90;;;;;;3604513;39;20232;-78
2021/07/04 02:48:08;;;;;;;9.70;8.30;;;15.10;99.90;;;;;;3604972;39;20268;-79
2021/07/04 02:50:40;;;;;;;11.88;8.43;;;15.30;99.90;;;;;;3604915;39;20225;-81
2021/07/04 02:53:09;;;;;;;9.82;8.52;;;15.10;99.90;;;;;;3604940;39;20241;-79
2021/07/04 02:55:38;;;;;;;9.45;7.70;;;14.90;99.90;;;;;;3605205;39;20241;-77
2021/07/04 02:58:07;;;;;;;8.90;8.10;;;14.60;99.90;;;;;;3610726;39;20248;-78
2021/07/04 03:00:37;;;;;;;11.23;7.97;;;14.40;99.90;;;;;;3614911;39;20225;-78
2021/07/04 03:03:05;;;;;;;10.43;9.43;;;14.30;99.90;;;;;;3614967;39;20237;-79
2021/07/04 03:05:32;;;;;;;8.88;8.05;;;14.60;99.90;;;;;;3623342;39;20264;-79
2021/07/04 03:07:59;;;;;;;8.98;8.18;;;14.80;99.90;;;;;;3623753;39;20244;-79
2021/07/04 03:10:27;;;;;;;9.50;8.57;;;15.30;99.90;;;;;;3614926;39;20229;-79
2021/07/04 03:12:58;;;;;;;10.85;8.68;;;15.70;99.90;;;;;;3623728;39;20233;-78
2021/07/04 03:15:27;;;;;;;15.88;9.32;;;15.70;99.90;;;;;;3614997;39;20240;-85
2021/07/04 03:17:57;;;;;;;8.77;8.02;;;15.70;99.90;;;;;;3614833;39;20256;-79
2021/07/04 03:20:30;;;;;;;8.75;7.90;;;15.60;99.90;;;;;;3614466;39;20245;-81
2021/07/04 03:23:04;;;;;;;10.50;7.35;;;16.00;99.90;;;;;;3614590;39;20236;-83
2021/07/04 03:25:33;;;;;;;9.75;8.50;;;16.10;99.90;;;;;;3614788;39;20248;-80
2021/07/04 03:28:00;;;;;;;8.70;7.80;;;16.40;99.90;;;;;;3606438;39;20237;-79
2021/07/04 03:30:29;;;;;;;12.75;9.05;;;16.50;99.90;;;;;;3614760;39;20221;-81
2021/07/04 03:32:56;;;;;;;8.63;7.93;;;16.50;99.90;;;;;;3622879;39;20209;-80
2021/07/04 03:35:28;;;;;;;9.13;8.25;;;16.50;99.90;;;;;;3623681;39;20613;-85
2021/07/04 03:37:59;;;;;;;10.15;8.77;;;16.50;99.90;;;;;;3623360;39;20229;-82
2021/07/04 03:40:26;;;;;;;8.10;7.38;;;16.50;99.90;;;;;;3623424;39;20244;-77
2021/07/04 03:42:58;;;;;;;9.07;8.23;;;16.50;99.90;;;;;;3613162;39;20234;-79
2021/07/04 03:45:31;;;;;;;10.68;7.88;;;16.50;99.90;;;;;;3604612;39;20713;-82
2021/07/04 03:47:59;;;;;;;9.00;8.10;;;16.50;99.90;;;;;;3614615;39;20287;-80
2021/07/04 03:50:38;;;;;;;8.35;7.55;;;16.30;99.90;;;;;;3604471;39;20246;-83
2021/07/04 03:53:06;;;;;;;9.95;8.27;;;16.30;99.90;;;;;;3613283;39;20295;-78
2021/07/04 03:55:34;;;;;;;11.32;8.60;;;16.40;99.90;;;;;;3613155;39;20310;-79
2021/07/04 03:58:01;;;;;;;14.70;9.68;;;16.40;99.90;;;;;;3604495;39;20234;-79
2021/07/04 04:00:40;;;;;;;9.25;8.45;;;16.50;99.90;;;;;;3612357;39;20240;-79
2021/07/04 04:03:13;;;;;;;10.75;9.57;;;16.50;99.90;;;;;;3603584;39;20236;-81
2021/07/04 04:05:48;;;;;;;9.82;8.75;;;16.50;99.90;;;;;;3603907;39;20225;-79
2021/07/04 04:08:16;;;;;;;8.35;7.65;;;16.00;99.90;;;;;;3603838;39;20292;-81
2021/07/04 04:10:45;;;;;;;8.52;7.68;;;16.10;99.90;;;;;;3612552;39;20781;-79
2021/07/04 04:13:19;;;;;;;9.85;8.15;;;16.40;99.90;;;;;;3612266;39;20230;-85
2021/07/04 04:15:49;;;;;;;10.48;7.38;;;16.70;99.90;;;;;;3603598;39;20237;-80
2021/07/04 04:18:19;;;;;;;11.18;9.70;;;16.70;99.90;;;;;;3603829;39;20277;-80
2021/07/04 04:20:47;;;;;;;8.68;7.80;;;16.80;99.90;;;;;;3612392;39;20234;-83
2021/07/04 04:23:15;;;;;;;12.05;7.90;;;16.90;99.90;;;;;;3612526;39;20230;-78
2021/07/04 04:25:46;;;;;;;12.57;8.63;;;16.90;99.90;;;;;;3612478;39;20240;-80
2021/07/04 04:28:13;;;;;;;9.35;8.25;;;16.80;99.90;;;;;;3603646;39;20257;-80
2021/07/04 04:30:40;;;;;;;11.68;8.40;;;16.90;99.90;;;;;;3603443;39;20229;-79
2021/07/04 04:33:14;;;;;;;10.23;8.90;;;17.00;99.90;;;;;;3612597;39;20269;-79
2021/07/04 04:35:43;;;;;;;15.10;7.68;;;16.90;99.90;;;;;;3603755;39;20250;-80
2021/07/04 04:38:10;;;;;;;12.32;8.27;;;17.00;99.90;;;;;;3612342;39;20234;-79
2021/07/04 04:40:37;;;;;;;8.07;7.28;;;17.10;99.90;;;;;;3604211;39;20230;-79
2021/07/04 04:43:04;;;;;;;13.90;8.55;;;17.20;99.90;;;;;;3622609;39;20678;-78
2021/07/04 04:45:31;;;;;;;8.98;7.32;;;17.30;99.90;;;;;;3622314;39;20239;-81
2021/07/04 04:47:59;;;;;;;7.70;7.00;;;17.30;99.90;;;;;;3622458;39;20241;-79
2021/07/04 04:50:27;;;;;;;9.00;7.57;;;17.20;99.90;;;;;;3622566;39;20237;-81
2021/07/04 04:52:54;;;;;;;8.13;7.40;;;17.30;99.90;;;;;;3622496;39;20232;-81
2021/07/04 04:55:21;;;;;;;8.13;6.88;;;17.40;99.90;;;;;;3622386;39;20228;-79
2021/07/04 04:57:48;;;;;;;11.27;8.20;;;17.50;99.90;;;;;;3622516;39;20252;-80
2021/07/04 05:00:16;;;;;;;9.07;8.10;;;17.40;99.90;;;;;;3613608;39;20253;-80
2021/07/04 05:02:44;;;;;;;12.32;7.32;;;17.20;99.90;;;;;;3613749;39;20233;-80
2021/07/04 05:05:12;;;;;;;8.57;7.88;;;17.50;99.90;;;;;;3622408;39;20233;-80
2021/07/04 05:07:40;;;;;;;8.80;7.43;;;17.50;99.90;;;;;;3622443;39;20245;-79
2021/07/04 05:10:08;;;;;;;7.55;6.90;;;17.10;99.90;;;;;;3622307;39;20285;-78
2021/07/04 05:12:35;;;;;;;9.05;8.25;;;17.00;99.90;;;;;;3622363;39;20213;-80
2021/07/04 05:15:03;;;;;;;8.82;7.93;;;17.10;99.90;;;;;;3622465;39;20766;-79
2021/07/04 05:17:30;;;;;;;10.13;7.50;;;17.40;99.90;;;;;;3622285;39;20255;-80
2021/07/04 05:19:57;;;;;;;9.82;8.55;;;17.60;99.90;;;;;;3604983;39;20297;-86
2021/07/04 05:22:24;;;;;;;8.95;8.25;;;17.50;99.90;;;;;;3622426;39;20232;-79
2021/07/04 05:24:52;;;;;;;12.18;8.13;;;17.30;99.90;;;;;;3621992;39;20241;-79
2021/07/04 05:27:19;;;;;;;9.60;8.80;;;17.10;99.90;;;;;;3622211;39;20294;-79
2021/07/04 05:29:47;;;;;;;8.68;7.97;;;17.10;99.90;;;;;;3612950;39;20693;-79
2021/07/04 05:32:14;;;;;;;9.15;8.35;;;17.10;99.90;;;;;;3613548;39;20237;-78
2021/07/04 05:34:41;;;;;;;8.95;8.07;;;17.10;99.90;;;;;;3622145;39;20233;-80
2021/07/04 05:37:08;;;;;;;12.13;8.52;;;17.00;99.90;;;;;;3622101;39;20249;-79
2021/07/04 05:39:35;;;;;;;9.07;7.40;;;17.10;99.90;;;;;;3613477;39;20236;-82
2021/07/04 05:42:04;;;;;;;9.15;8.35;;;17.20;99.90;;;;;;3615359;39;20294;-83
2021/07/04 05:44:32;;;;;;;8.20;7.45;;;17.50;99.90;;;;;;3611975;39;20233;-84
2021/07/04 05:46:59;;;;;;;10.27;8.13;;;17.50;99.90;;;;;;3611868;39;20241;-79
2021/07/04 05:49:26;;;;;;;8.77;7.97;;;17.50;99.90;;;;;;3603176;39;20214;-82
2021/07/04 05:51:53;;;;;;;9.73;8.82;;;17.40;99.90;;;;;;3613282;39;20233;-78
2021/07/04 05:54:21;;;;;;;9.18;8.25;;;17.30;99.90;;;;;;3611573;39;20284;-82
2021/07/04 05:56:48;;;;;;;8.05;7.45;;;17.30;99.90;;;;;;3602980;39;20240;-80
2021/07/04 05:59:17;;;;;;;10.35;9.40;;;17.50;99.90;;;;;;3603105;39;20417;-79
2021/07/04 06:01:44;;;;;;;12.50;8.48;;;17.50;99.90;;;;;;3611906;39;20242;-80
2021/07/04 06:04:11;;;;;;;7.97;7.38;;;17.60;99.90;;;;;;3611788;39;20202;-79
2021/07/04 06:06:38;;;;;;;10.25;9.05;;;17.80;99.90;;;;;;3611805;39;20843;-80
2021/07/04 06:09:05;;;;;;;10.77;8.00;;;17.70;99.90;;;;;;3611731;39;20233;-80
2021/07/04 06:11:32;;;;;;;11.25;8.73;;;17.70;99.90;;;;;;3611810;39;20238;-82
2021/07/04 06:13:59;;;;;;;8.77;7.97;;;17.80;99.90;;;;;;3602979;39;20237;-81
2021/07/04 06:16:28;;;;;;;8.63;7.97;;;17.80;99.90;;;;;;3611672;39;20258;-83
2021/07/04 06:18:54;;;;;;;9.00;8.30;;;17.90;99.90;;;;;;3611654;39;20240;-80
2021/07/04 06:21:21;;;;;;;9.27;8.48;;;18.20;99.90;;;;;;3611603;39;20229;-79
2021/07/04 06:23:49;;;;;;;8.23;7.43;;;18.40;99.90;;;;;;3611551;39;20283;-81
2021/07/04 06:26:16;;;;;;;8.77;7.55;;;18.40;99.90;;;;;;3602843;39;20245;-81
2021/07/04 06:28:43;;;;;;;9.80;8.80;;;18.20;99.90;;;;;;3611223;39;20237;-80
2021/07/04 06:31:10;;;;;;;9.70;8.70;;;18.40;99.90;;;;;;3611517;39;20241;-79
2021/07/04 06:33:38;;;;;;;8.70;7.90;;;18.60;99.90;;;;;;3611734;39;20744;-81
2021/07/04 06:36:06;;;;;;;9.25;8.38;;;18.50;99.90;;;;;;3611650;39;20230;-80
2021/07/04 06:38:46;;;;;;;9.95;9.15;;;18.20;99.90;;;;;;3611640;39;20222;-81
2021/07/04 06:41:13;;;;;;;8.40;7.65;;;18.10;99.90;;;;;;3650533;22;20232;-39
2021/07/04 06:43:42;;;;;;;9.50;8.35;;;18.60;99.90;;;;;;3618186;39;20654;-38
2021/07/04 06:46:09;;;;;;;8.35;7.53;;;18.40;99.90;;;;;;3618235;39;20244;-39
2021/07/04 06:48:38;;;;;;;7.82;7.18;;;18.50;99.90;;;;;;3618406;39;20243;-39
2021/07/04 06:51:05;;;;;;;8.85;8.15;;;18.20;99.90;;;;;;3620759;39;20264;-39
2021/07/04 06:53:32;;;;;;;8.90;8.02;;;18.60;99.90;;;;;;3628168;39;20597;-42
2021/07/04 06:55:59;;;;;;;8.43;7.47;;;18.50;99.90;;;;;;3633317;39;20223;-39
2021/07/04 06:58:26;;;;;;;8.95;8.05;;;18.70;99.90;;;;;;3636310;39;20623;-39
2021/07/04 07:00:53;;;;;;;8.82;7.93;;;19.00;99.90;;;;;;3637544;39;20568;-39
2021/07/04 07:03:20;;;;;;;9.52;8.70;;;19.20;99.90;;;;;;3629074;39;20598;-38
2021/07/04 07:05:48;;;;;;;8.80;7.90;;;19.50;99.90;;;;;;3632215;39;20591;-38
2021/07/04 07:08:15;;;;;;;10.90;9.93;;;19.70;99.90;;;;;;3629105;39;20240;-40
2021/07/04 07:10:42;;;;;;;9.25;8.45;;;19.90;99.90;;;;;;3629241;39;20239;-38
2021/07/04 07:13:09;;;;;;;8.88;8.07;;;20.10;99.90;;;;;;3637298;39;20343;-40
2021/07/04 07:15:40;;;;;;;12.07;9.10;;;20.30;99.90;;;;;;3630050;39;20231;-39
2021/07/04 07:18:07;;;;;;;9.57;8.68;;;20.40;99.90;;;;;;3634466;39;20339;-38
2021/07/04 07:20:36;;;;;;;8.88;8.00;;;20.50;99.90;;;;;;3639491;39;20311;-40
2021/07/04 07:23:05;;;;;;;8.93;8.07;;;20.70;99.90;;;;;;3624682;39;20239;-40
2021/07/04 07:25:40;;;;;;;9.30;8.38;;;20.90;99.90;;;;;;3630730;39;20323;-39
2021/07/04 07:28:07;;;;;;;8.32;7.57;;;21.10;99.90;;;;;;3635730;39;20320;-38
2021/07/04 07:30:39;;;;;;;9.07;8.35;;;21.30;99.90;;;;;;3629124;39;20243;-39
2021/07/04 07:33:06;;;;;;;8.85;8.15;;;21.50;99.90;;;;;;3630165;39;20233;-41
2021/07/04 07:35:33;;;;;;;8.85;7.95;;;21.50;99.90;;;;;;3633805;39;20247;-39
2021/07/04 07:38:03;;;;;;;9.38;8.48;;;21.50;99.90;;;;;;3629877;39;20234;-39
2021/07/04 07:40:34;;;;;;;8.55;7.65;;;21.50;99.90;;;;;;3639284;39;20242;-39
2021/07/04 07:43:02;;;;;;;9.27;7.15;;;21.60;99.90;;;;;;3629812;39;20243;-39
2021/07/04 07:45:29;;;;;;;8.52;7.72;;;21.60;99.90;;;;;;3629172;39;20232;-39
2021/07/04 07:48:03;;;;;;;10.18;9.20;;;21.60;99.90;;;;;;3615151;39;20236;-39
2021/07/04 07:50:33;;;;;;;9.55;8.77;;;21.80;99.90;;;;;;3619200;39;20254;-39
2021/07/04 07:53:00;;;;;;;9.52;8.70;;;21.90;99.90;;;;;;3628917;39;20235;-39
2021/07/04 07:55:27;;;;;;;8.85;7.95;;;21.80;99.90;;;;;;3629417;39;20243;-39
2021/07/04 07:57:55;;;;;;;10.35;9.13;;;21.80;99.90;;;;;;3631480;39;20239;-39
2021/07/04 08:00:23;;;;;;;18.38;16.77;;;21.80;99.90;;;;;;3639359;39;20483;-40
2021/07/04 08:02:50;;;;;;;12.55;11.35;;;21.80;99.90;;;;;;3639176;39;20257;-41
2021/07/04 08:05:21;;;;;;;9.70;8.07;;;21.90;99.90;;;;;;3629866;39;20235;-40
2021/07/04 08:07:48;;;;;;;11.73;10.57;;;22.00;99.90;;;;;;3639556;39;20239;-39
2021/07/04 08:10:15;;;;;;;14.13;12.82;;;22.10;99.90;;;;;;3624165;39;20267;-40
2021/07/04 08:12:43;;;;;;;15.38;13.98;;;22.20;99.90;;;;;;3628869;39;20243;-39
2021/07/04 08:15:13;;;;;;;16.98;15.38;;;22.20;99.90;;;;;;3628982;39;20694;-39
2021/07/04 08:17:41;;;;;;;9.65;8.85;;;22.40;99.90;;;;;;3626844;39;20235;-41
2021/07/04 08:20:10;;;;;;;10.13;8.95;;;22.60;99.90;;;;;;3639575;39;20226;-39
2021/07/04 08:22:37;;;;;;;9.43;8.63;;;22.90;99.90;;;;;;3639447;39;20250;-39
2021/07/04 08:25:05;;;;;;;9.02;8.23;;;22.90;99.90;;;;;;3639369;39;20227;-40
2021/07/04 08:27:32;;;;;;;8.90;8.13;;;23.20;99.90;;;;;;3639286;39;20227;-40
2021/07/04 08:29:59;;;;;;;8.90;8.10;;;23.10;99.90;;;;;;3639493;39;20243;-41
2021/07/04 08:32:29;;;;;;;9.85;8.90;;;23.00;99.90;;;;;;3639480;39;20325;-41
2021/07/04 08:34:56;;;;;;;11.25;10.25;;;23.00;99.90;;;;;;3639532;39;20265;-40
2021/07/04 08:37:32;;;;;;;11.07;9.98;;;23.00;99.90;;;;;;3639345;39;20644;-40
2021/07/04 08:39:59;;;;;;;15.48;9.27;;;23.00;99.90;;;;;;3639230;39;20235;-39
2021/07/04 08:42:26;;;;;;;8.68;7.78;;;23.00;99.90;;;;;;3630866;39;20232;-39
2021/07/04 08:44:55;;;;;;;9.77;8.88;;;23.10;99.90;;;;;;3629458;39;20546;-40
2021/07/04 08:47:24;;;;;;;8.30;7.50;;;23.00;99.90;;;;;;3629031;39;20268;-41
2021/07/04 08:49:54;;;;;;;8.55;7.78;;;23.10;99.90;;;;;;3628940;39;20511;-40
2021/07/04 08:52:21;;;;;;;9.75;8.82;;;23.00;99.90;;;;;;3629170;39;20605;-39
2021/07/04 08:54:49;;;;;;;25.75;23.17;;;23.00;99.90;;;;;;3628872;39;20232;-41
2021/07/04 08:57:17;;;;;;;15.18;13.60;;;23.10;99.90;;;;;;3628751;39;20231;-41
2021/07/04 08:59:46;;;;;;;13.32;11.93;;;23.20;99.90;;;;;;3628802;39;20242;-40
2021/07/04 09:02:15;;;;;;;9.60;8.57;;;23.50;99.90;;;;;;3629136;39;20254;-40
2021/07/04 09:05:01;;;;;;;8.43;7.72;;;23.50;99.90;;;;;;3628995;39;20244;-42
2021/07/04 09:07:30;;;;;;;8.93;8.23;;;23.40;99.90;;;;;;3629070;39;20242;-38
2021/07/04 09:09:58;;;;;;;9.80;8.18;;;23.40;99.90;;;;;;3629275;39;20516;-39
2021/07/04 09:12:36;;;;;;;9.38;8.48;;;23.50;99.90;;;;;;3628927;39;20324;-40
2021/07/04 09:15:13;;;;;;;13.85;12.65;;;23.80;99.90;;;;;;3629387;39;20232;-39
2021/07/04 09:17:44;;;;;;;16.92;15.35;;;24.00;99.90;;;;;;3628755;39;20231;-40
2021/07/04 09:20:16;;;;;;;10.77;9.73;;;24.30;99.90;;;;;;3619193;39;20258;-39
2021/07/04 09:22:45;;;;;;;9.18;8.25;;;24.60;99.90;;;;;;3629019;39;20251;-41
2021/07/04 09:25:14;;;;;;;10.95;9.35;;;24.70;99.90;;;;;;3628658;39;20231;-39
2021/07/04 09:27:43;;;;;;;7.03;6.43;;;24.70;99.90;;;;;;3628955;39;20228;-41
2021/07/04 09:30:16;;;;;;;8.40;7.65;;;24.50;99.90;;;;;;3628027;39;20278;-39
2021/07/04 09:32:48;;;;;;;8.30;7.50;;;24.50;99.90;;;;;;3628757;39;20527;-41
2021/07/04 09:35:19;;;;;;;7.97;7.28;;;24.50;99.90;;;;;;3629351;39;20296;-39
2021/07/04 09:37:50;;;;;;;9.30;8.50;;;24.70;99.90;;;;;;3628964;39;20265;-38
2021/07/04 09:40:21;;;;;;;8.18;7.20;;;24.70;99.90;;;;;;3628461;39;20232;-41
2021/07/04 09:43:08;;;;;;;9.52;7.82;;;25.00;99.90;;;;;;3628819;39;20598;-40
2021/07/04 09:45:42;;;;;;;8.40;7.65;;;25.10;99.90;;;;;;3629031;39;20243;-43
2021/07/04 09:48:10;;;;;;;9.25;8.45;;;25.20;99.90;;;;;;3628922;39;20319;-40
2021/07/04 09:50:42;;;;;;;8.55;7.72;;;25.40;99.90;;;;;;3628332;39;20641;-38
2021/07/04 09:53:09;;;;;;;8.32;7.63;;;25.50;99.90;;;;;;3628392;39;20240;-40
2021/07/04 09:55:37;;;;;;;15.05;13.68;;;25.50;99.90;;;;;;3628556;39;20239;-40
2021/07/04 09:58:05;;;;;;;41.72;37.70;;;25.50;99.90;;;;;;3628585;39;20244;-41
2021/07/04 10:00:34;;;;;;;9.77;8.98;;;25.70;99.90;;;;;;3628679;39;20239;-40
2021/07/04 10:03:08;;;;;;;9.05;8.35;;;25.80;99.90;;;;;;3618991;39;20243;-40
2021/07/04 10:05:36;;;;;;;9.02;8.23;;;26.10;99.90;;;;;;3628329;39;20242;-40
2021/07/04 10:08:20;;;;;;;8.45;7.57;;;25.80;99.90;;;;;;3628667;39;20251;-39
2021/07/04 10:10:48;;;;;;;7.65;7.05;;;25.30;99.90;;;;;;3628564;39;20304;-40
2021/07/04 10:13:15;;;;;;;11.30;10.30;;;25.20;99.90;;;;;;3628353;39;20698;-40
2021/07/04 10:15:42;;;;;;;10.05;9.07;;;25.30;99.90;;;;;;3628488;39;20239;-40
2021/07/04 10:18:10;;;;;;;9.25;8.52;;;25.30;99.90;;;;;;3628187;39;20285;-40
2021/07/04 10:20:38;;;;;;;7.22;6.68;;;25.40;99.90;;;;;;3628196;39;20236;-39
2021/07/04 10:23:07;;;;;;;7.93;7.28;;;25.40;99.90;;;;;;3628548;39;20312;-39
2021/07/04 10:25:36;;;;;;;7.88;7.18;;;25.20;99.90;;;;;;3628171;39;20654;-40
2021/07/04 10:28:05;;;;;;;6.40;5.90;;;25.30;99.90;;;;;;3628508;39;20235;-40
2021/07/04 10:30:33;;;;;;;8.07;7.45;;;25.40;99.90;;;;;;3627741;39;20239;-40
2021/07/04 10:33:22;;;;;;;8.25;7.45;;;25.50;99.90;;;;;;3627917;39;20529;-42
2021/07/04 10:36:04;;;;;;;5.97;5.47;;;25.70;99.90;;;;;;3624511;39;20243;-42
2021/07/04 10:38:43;;;;;;;6.10;5.70;;;25.90;99.90;;;;;;3629828;39;20320;-40
2021/07/04 10:41:13;;;;;;;7.63;6.95;;;26.20;99.90;;;;;;3628669;39;20239;-40
2021/07/04 10:43:55;;;;;;;7.20;6.57;;;26.50;99.90;;;;;;3629533;39;20623;-40
2021/07/04 10:46:56;;;;;;;11.95;9.90;;;26.60;99.90;;;;;;3629251;39;20243;-40
2021/07/04 10:49:24;;;;;;;25.70;23.15;;;26.50;99.90;;;;;;3629725;39;20243;-40
2021/07/04 10:51:56;;;;;;;8.55;7.00;;;26.50;99.90;;;;;;3630036;39;20243;-40
2021/07/04 10:54:44;;;;;;;7.03;6.32;;;26.60;99.90;;;;;;3630276;39;20594;-41
2021/07/04 10:57:14;;;;;;;6.97;6.45;;;26.60;99.90;;;;;;3629673;39;20231;-41
2021/07/04 11:00:26;;;;;;;6.10;5.60;;;26.70;99.90;;;;;;3629349;39;20228;-40
2021/07/04 11:02:56;;;;;;;8.35;6.35;;;27.00;99.90;;;;;;3615170;39;20246;-39
2021/07/04 11:05:48;;;;;;;6.10;4.90;;;27.20;99.90;;;;;;3629648;39;20235;-42
2021/07/04 11:08:24;;;;;;;6.10;5.50;;;27.10;99.90;;;;;;3630364;39;20263;-39
2021/07/04 11:11:06;;;;;;;5.05;4.55;;;27.30;99.90;;;;;;3629221;39;20242;-39
2021/07/04 11:13:41;;;;;;;5.53;5.03;;;27.40;99.90;;;;;;3629540;39;20251;-40
2021/07/04 11:16:28;;;;;;;5.38;4.82;;;27.50;99.90;;;;;;3629370;39;20634;-42
2021/07/04 11:19:10;;;;;;;11.55;10.25;;;27.40;99.90;;;;;;3629959;39;20525;-41
2021/07/04 11:21:48;;;;;;;6.78;6.28;;;27.30;99.90;;;;;;3629227;39;20251;-42
2021/07/04 11:24:18;;;;;;;7.55;5.90;;;27.50;99.90;;;;;;3629493;39;20258;-41
2021/07/04 11:27:26;;;;;;;5.18;4.78;;;27.60;99.90;;;;;;3629026;39;20241;-43
2021/07/04 11:30:26;;;;;;;4.28;3.88;;;27.60;99.90;;;;;;3596679;40;20241;-41
2021/07/04 11:33:21;;;;;;;5.53;5.00;;;27.70;99.90;;;;;;3596530;40;20280;-40
2021/07/04 11:35:49;;;;;;;8.52;4.60;;;27.70;99.90;;;;;;3628208;39;20247;-41
2021/07/04 11:38:17;;;;;;;7.65;5.10;;;27.70;99.90;;;;;;3629507;39;20232;-41
2021/07/04 11:40:45;;;;;;;5.05;4.63;;;27.60;99.90;;;;;;3627703;39;20231;-41
2021/07/04 11:43:13;;;;;;;5.88;5.05;;;27.70;99.90;;;;;;3619233;39;20325;-44
2021/07/04 11:45:48;;;;;;;5.00;4.60;;;27.80;99.90;;;;;;3619126;39;20320;-41
2021/07/04 11:48:15;;;;;;;4.78;4.28;;;27.80;99.90;;;;;;3619069;39;20264;-42
2021/07/04 11:50:50;;;;;;;5.10;4.70;;;27.90;99.90;;;;;;3622908;39;20586;-43
2021/07/04 11:53:18;;;;;;;5.38;4.70;;;27.80;99.90;;;;;;3629171;39;20255;-41
2021/07/04 11:55:59;;;;;;;5.30;4.90;;;27.90;99.90;;;;;;3629307;39;20668;-41
2021/07/04 11:58:27;;;;;;;5.78;5.03;;;28.00;99.90;;;;;;3629179;39;20532;-40
2021/07/04 12:00:56;;;;;;;5.57;4.70;;;28.10;99.90;;;;;;3629154;39;20526;-41
2021/07/04 12:03:27;;;;;;;5.15;4.70;;;28.10;99.90;;;;;;3629461;39;20231;-43
2021/07/04 12:06:06;;;;;;;4.13;3.83;;;28.10;99.90;;;;;;3630665;39;20268;-41
2021/07/04 12:08:54;;;;;;;4.60;4.18;;;28.30;99.90;;;;;;3633404;39;20595;-41
2021/07/04 12:11:40;;;;;;;5.97;5.38;;;28.40;99.90;;;;;;3629882;39;20274;-41
2021/07/04 12:14:25;;;;;;;4.68;4.38;;;28.40;99.90;;;;;;3629280;39;20267;-43
2021/07/04 12:16:53;;;;;;;4.78;4.38;;;28.60;99.90;;;;;;3629399;39;20243;-41
2021/07/04 12:19:33;;;;;;;5.05;4.65;;;28.70;99.90;;;;;;3619727;39;20232;-42
2021/07/04 12:22:01;;;;;;;6.13;4.63;;;28.80;99.90;;;;;;3629812;39;20263;-41
2021/07/04 12:24:39;;;;;;;7.57;4.65;;;28.80;99.90;;;;;;3629580;39;20236;-44
2021/07/04 12:27:07;;;;;;;4.63;4.32;;;28.80;99.90;;;;;;3629011;39;20239;-41
2021/07/04 12:30:10;;;;;;;5.75;4.80;;;28.90;99.90;;;;;;3629110;39;20239;-42
2021/07/04 12:32:42;;;;;;;4.90;4.50;;;28.80;99.90;;;;;;3626087;39;20250;-43
2021/07/04 12:35:19;;;;;;;5.72;5.22;;;28.80;99.90;;;;;;3630195;39;20231;-40
2021/07/04 12:37:47;;;;;;;5.10;4.70;;;29.00;99.90;;;;;;3629164;39;20267;-41
2021/07/04 12:40:16;;;;;;;5.03;4.65;;;29.20;99.90;;;;;;3629007;39;20232;-43
2021/07/04 12:42:44;;;;;;;5.50;5.05;;;29.40;99.90;;;;;;3629108;39;20579;-40
2021/07/04 12:45:13;;;;;;;7.25;5.20;;;29.50;99.90;;;;;;3629279;39;20231;-45
2021/07/04 12:47:41;;;;;;;4.95;4.55;;;29.40;99.90;;;;;;3629941;39;20236;-44
2021/07/04 12:50:11;;;;;;;5.40;4.90;;;29.30;99.90;;;;;;3628791;39;20232;-43
2021/07/04 12:52:52;;;;;;;4.78;4.38;;;29.60;99.90;;;;;;3628966;39;20296;-43
2021/07/04 12:55:34;;;;;;;4.95;4.50;;;29.50;99.90;;;;;;3629146;39;20654;-41
2021/07/04 12:58:20;;;;;;;5.70;5.13;;;29.50;99.90;;;;;;3629043;39;20318;-41
2021/07/04 13:00:47;;;;;;;5.53;5.07;;;29.60;99.90;;;;;;3629415;39;20259;-41
2021/07/04 13:03:36;;;;;;;5.53;5.03;;;29.80;99.90;;;;;;3629049;39;20228;-41